sensor_id;sensor_type;location;lat;lon;timestamp;temperature;humidity
41987;DHT22;28361;50.740;7.084;2023-07-13T08:35:48;20.70;1.00
41987;DHT22;28361;50.740;7.084;2023-07-13T08:38:14;22.30;1.00
41987;DHT22;28361;50.740;7.084;2023-07-13T08:40:41;22.70;1.00
41987;DHT22;28361;50.740;7.084;2023-07-13T08:43:12;22.40;1.00
41987;DHT22;28361;50.740;7.084;2023-07-13T08:48:18;22.60;1.00
41987;DHT22;28361;50.740;7.084;2023-07-13T08:53:21;23.50;1.00
41987;DHT22;28361;50.740;7.084;2023-07-13T08:55:51;23.70;1.00
41987;DHT22;28361;50.740;7.084;2023-07-13T08:58:21;23.90;1.00
41987;DHT22;28361;50.740;7.084;2023-07-13T09:00:52;23.90;1.00
41987;DHT22;28361;50.740;7.084;2023-07-13T09:03:25;23.30;1.00
41987;DHT22;28361;50.740;7.084;2023-07-13T09:05:58;23.50;1.00
41987;DHT22;28361;50.740;7.084;2023-07-13T09:16:48;24.20;1.00
41987;DHT22;28361;50.740;7.084;2023-07-13T09:19:30;23.70;1.00
41987;DHT22;28361;50.740;7.084;2023-07-13T09:21:59;23.50;1.00
41987;DHT22;28361;50.740;7.084;2023-07-13T09:24:37;23.30;1.00
41987;DHT22;28361;50.740;7.084;2023-07-13T09:27:21;23.50;1.00
41987;DHT22;28361;50.740;7.084;2023-07-13T09:32:51;23.60;1.00
41987;DHT22;28361;50.740;7.084;2023-07-13T09:35:21;24.20;1.00
41987;DHT22;28361;50.740;7.084;2023-07-13T09:37:48;24.20;1.00
41987;DHT22;28361;50.740;7.084;2023-07-13T09:40:30;24.60;1.00
41987;DHT22;28361;50.740;7.084;2023-07-13T09:43:01;24.40;1.00
41987;DHT22;28361;50.740;7.084;2023-07-13T09:45:30;23.70;1.00
41987;DHT22;28361;50.740;7.084;2023-07-13T14:01:00;23.30;1.00
41987;DHT22;28361;50.740;7.084;2023-07-13T14:03:26;25.70;1.00
41987;DHT22;28361;50.740;7.084;2023-07-13T14:05:53;26.10;1.00
41987;DHT22;28361;50.740;7.084;2023-07-13T14:08:20;26.20;1.00
41987;DHT22;28361;50.740;7.084;2023-07-13T14:10:49;26.00;1.00
41987;DHT22;28361;50.740;7.084;2023-07-13T14:13:26;26.20;1.00
41987;DHT22;28361;50.740;7.084;2023-07-13T14:15:55;26.50;1.00
41987;DHT22;28361;50.740;7.084;2023-07-13T14:18:21;26.20;1.00
41987;DHT22;28361;50.740;7.084;2023-07-13T14:20:49;26.00;1.00
41987;DHT22;28361;50.740;7.084;2023-07-13T14:23:16;26.30;1.00
41987;DHT22;28361;50.740;7.084;2023-07-13T14:25:46;26.10;1.00
41987;DHT22;28361;50.740;7.084;2023-07-13T14:28:24;26.00;1.00
41987;DHT22;28361;50.740;7.084;2023-07-13T14:30:51;25.60;1.00
41987;DHT22;28361;50.740;7.084;2023-07-13T14:33:17;25.60;1.00
41987;DHT22;28361;50.740;7.084;2023-07-13T14:35:43;25.80;1.00
41987;DHT22;28361;50.740;7.084;2023-07-13T14:38:12;26.40;1.00
41987;DHT22;28361;50.740;7.084;2023-07-13T14:43:09;26.70;1.00
41987;DHT22;28361;50.740;7.084;2023-07-13T14:45:43;26.10;1.00
41987;DHT22;28361;50.740;7.084;2023-07-13T14:48:17;25.80;1.00
41987;DHT22;28361;50.740;7.084;2023-07-13T14:50:44;26.00;1.00
41987;DHT22;28361;50.740;7.084;2023-07-13T14:53:11;26.50;1.00
41987;DHT22;28361;50.740;7.084;2023-07-13T14:55:38;27.00;1.00
41987;DHT22;28361;50.740;7.084;2023-07-13T14:58:03;26.70;1.00
41987;DHT22;28361;50.740;7.084;2023-07-13T15:00:29;27.10;1.00
41987;DHT22;28361;50.740;7.084;2023-07-13T15:02:57;27.10;1.00
41987;DHT22;28361;50.740;7.084;2023-07-13T15:05:26;26.90;1.00
41987;DHT22;28361;50.740;7.084;2023-07-13T15:07:53;26.30;1.00
41987;DHT22;28361;50.740;7.084;2023-07-13T15:10:24;26.20;1.00
41987;DHT22;28361;50.740;7.084;2023-07-13T15:12:59;26.20;1.00
41987;DHT22;28361;50.740;7.084;2023-07-13T15:15:31;26.10;1.00
41987;DHT22;28361;50.740;7.084;2023-07-13T15:17:59;25.80;1.00
41987;DHT22;28361;50.740;7.084;2023-07-13T15:20:32;25.50;1.00
41987;DHT22;28361;50.740;7.084;2023-07-13T15:22:58;26.50;1.00
41987;DHT22;28361;50.740;7.084;2023-07-13T15:25:26;27.30;1.00
41987;DHT22;28361;50.740;7.084;2023-07-13T15:27:53;26.90;1.00
41987;DHT22;28361;50.740;7.084;2023-07-13T15:30:20;27.10;1.00
41987;DHT22;28361;50.740;7.084;2023-07-13T15:32:46;27.10;1.00
41987;DHT22;28361;50.740;7.084;2023-07-13T15:35:24;27.20;1.00
41987;DHT22;28361;50.740;7.084;2023-07-13T15:37:50;26.40;1.00
41987;DHT22;28361;50.740;7.084;2023-07-13T15:40:17;26.70;1.00
41987;DHT22;28361;50.740;7.084;2023-07-13T15:42:44;27.40;1.00
41987;DHT22;28361;50.740;7.084;2023-07-13T15:45:21;26.50;1.00
41987;DHT22;28361;50.740;7.084;2023-07-13T15:47:49;26.40;1.00
41987;DHT22;28361;50.740;7.084;2023-07-13T15:50:17;27.20;1.00
41987;DHT22;28361;50.740;7.084;2023-07-13T15:52:45;27.80;1.00
41987;DHT22;28361;50.740;7.084;2023-07-13T15:55:13;27.80;1.00
41987;DHT22;28361;50.740;7.084;2023-07-13T15:57:43;27.20;1.00
41987;DHT22;28361;50.740;7.084;2023-07-13T16:00:19;26.30;1.00
41987;DHT22;28361;50.740;7.084;2023-07-13T16:02:46;25.40;1.00
41987;DHT22;28361;50.740;7.084;2023-07-13T16:05:12;24.70;1.00
41987;DHT22;28361;50.740;7.084;2023-07-13T16:07:38;24.80;1.00
41987;DHT22;28361;50.740;7.084;2023-07-13T16:10:04;25.10;1.00
41987;DHT22;28361;50.740;7.084;2023-07-13T16:12:29;25.20;1.00
41987;DHT22;28361;50.740;7.084;2023-07-13T16:14:55;25.10;1.00
41987;DHT22;28361;50.740;7.084;2023-07-13T16:17:21;25.30;1.00
41987;DHT22;28361;50.740;7.084;2023-07-13T16:19:46;26.00;1.00
41987;DHT22;28361;50.740;7.084;2023-07-13T16:22:19;26.00;1.00
41987;DHT22;28361;50.740;7.084;2023-07-13T16:24:45;25.60;1.00
41987;DHT22;28361;50.740;7.084;2023-07-13T16:27:11;25.70;1.00
41987;DHT22;28361;50.740;7.084;2023-07-13T16:29:38;25.40;1.00
41987;DHT22;28361;50.740;7.084;2023-07-13T16:32:11;25.10;1.00
41987;DHT22;28361;50.740;7.084;2023-07-13T16:34:40;24.70;1.00
41987;DHT22;28361;50.740;7.084;2023-07-13T16:37:13;24.40;1.00
41987;DHT22;28361;50.740;7.084;2023-07-13T16:39:50;24.20;1.00
41987;DHT22;28361;50.740;7.084;2023-07-13T16:42:18;24.10;1.00
41987;DHT22;28361;50.740;7.084;2023-07-13T16:44:44;23.80;1.00
41987;DHT22;28361;50.740;7.084;2023-07-13T16:47:15;23.60;1.00
41987;DHT22;28361;50.740;7.084;2023-07-13T16:49:41;23.50;1.00
41987;DHT22;28361;50.740;7.084;2023-07-13T16:52:17;23.40;1.00
41987;DHT22;28361;50.740;7.084;2023-07-13T16:54:47;23.40;1.00
41987;DHT22;28361;50.740;7.084;2023-07-13T16:57:25;23.50;1.00
41987;DHT22;28361;50.740;7.084;2023-07-13T16:59:52;23.10;1.00
41987;DHT22;28361;50.740;7.084;2023-07-13T17:02:38;23.10;1.00
41987;DHT22;28361;50.740;7.084;2023-07-13T17:05:05;23.30;1.00
41987;DHT22;28361;50.740;7.084;2023-07-13T17:07:31;23.40;1.00
41987;DHT22;28361;50.740;7.084;2023-07-13T17:09:58;23.40;1.00
41987;DHT22;28361;50.740;7.084;2023-07-13T17:12:25;23.40;1.00
41987;DHT22;28361;50.740;7.084;2023-07-13T17:14:50;23.30;1.00
41987;DHT22;28361;50.740;7.084;2023-07-13T17:17:18;23.10;1.00
41987;DHT22;28361;50.740;7.084;2023-07-13T17:19:45;23.10;1.00
41987;DHT22;28361;50.740;7.084;2023-07-13T17:22:12;23.10;1.00
41987;DHT22;28361;50.740;7.084;2023-07-13T17:24:46;23.00;1.00
41987;DHT22;28361;50.740;7.084;2023-07-13T17:27:14;23.00;1.00
41987;DHT22;28361;50.740;7.084;2023-07-13T17:29:41;23.00;1.00
41987;DHT22;28361;50.740;7.084;2023-07-13T17:32:14;23.00;1.00
41987;DHT22;28361;50.740;7.084;2023-07-13T17:34:40;22.90;1.00
41987;DHT22;28361;50.740;7.084;2023-07-13T17:37:12;22.80;1.00
41987;DHT22;28361;50.740;7.084;2023-07-13T17:39:39;22.60;1.00
41987;DHT22;28361;50.740;7.084;2023-07-13T17:42:05;22.60;1.00
41987;DHT22;28361;50.740;7.084;2023-07-13T17:44:31;22.80;1.00
41987;DHT22;28361;50.740;7.084;2023-07-13T17:46:56;22.80;1.00
41987;DHT22;28361;50.740;7.084;2023-07-13T17:49:23;22.90;1.00
41987;DHT22;28361;50.740;7.084;2023-07-13T17:51:57;22.70;1.00
41987;DHT22;28361;50.740;7.084;2023-07-13T17:54:24;22.70;1.00
41987;DHT22;28361;50.740;7.084;2023-07-13T17:56:52;22.70;1.00
41987;DHT22;28361;50.740;7.084;2023-07-13T17:59:18;22.70;1.00
41987;DHT22;28361;50.740;7.084;2023-07-13T18:01:44;22.70;1.00
41987;DHT22;28361;50.740;7.084;2023-07-13T18:04:12;22.70;1.00
41987;DHT22;28361;50.740;7.084;2023-07-13T18:06:41;22.50;1.00
41987;DHT22;28361;50.740;7.084;2023-07-13T18:09:20;22.50;1.00
41987;DHT22;28361;50.740;7.084;2023-07-13T18:11:46;22.40;1.00
41987;DHT22;28361;50.740;7.084;2023-07-13T18:14:13;22.50;1.00
41987;DHT22;28361;50.740;7.084;2023-07-13T18:16:39;22.50;1.00
41987;DHT22;28361;50.740;7.084;2023-07-13T18:19:52;22.50;1.00
41987;DHT22;28361;50.740;7.084;2023-07-13T18:22:01;22.50;1.00
41987;DHT22;28361;50.740;7.084;2023-07-13T18:24:28;22.40;1.00
41987;DHT22;28361;50.740;7.084;2023-07-13T18:26:55;22.30;1.00
41987;DHT22;28361;50.740;7.084;2023-07-13T18:29:21;22.30;1.00
41987;DHT22;28361;50.740;7.084;2023-07-13T18:31:47;22.30;1.00
41987;DHT22;28361;50.740;7.084;2023-07-13T18:34:13;22.10;1.00
41987;DHT22;28361;50.740;7.084;2023-07-13T18:36:40;22.00;1.00
41987;DHT22;28361;50.740;7.084;2023-07-13T18:39:13;21.90;1.00
41987;DHT22;28361;50.740;7.084;2023-07-13T18:41:40;21.90;1.00
41987;DHT22;28361;50.740;7.084;2023-07-13T18:44:06;21.80;1.00
41987;DHT22;28361;50.740;7.084;2023-07-13T18:46:32;21.60;1.00
41987;DHT22;28361;50.740;7.084;2023-07-13T18:49:00;21.50;1.00
41987;DHT22;28361;50.740;7.084;2023-07-13T18:51:26;21.60;1.00
41987;DHT22;28361;50.740;7.084;2023-07-13T18:53:52;21.50;1.00
41987;DHT22;28361;50.740;7.084;2023-07-13T18:56:18;21.50;1.00
41987;DHT22;28361;50.740;7.084;2023-07-13T18:58:44;21.50;1.00
41987;DHT22;28361;50.740;7.084;2023-07-13T19:01:31;21.40;1.00
41987;DHT22;28361;50.740;7.084;2023-07-13T19:03:57;21.40;1.00
41987;DHT22;28361;50.740;7.084;2023-07-13T19:06:23;21.50;1.00
41987;DHT22;28361;50.740;7.084;2023-07-13T19:08:49;21.50;1.00
41987;DHT22;28361;50.740;7.084;2023-07-13T19:11:18;21.50;1.00
41987;DHT22;28361;50.740;7.084;2023-07-13T19:13:44;21.40;1.00
41987;DHT22;28361;50.740;7.084;2023-07-13T19:16:11;21.40;1.00
41987;DHT22;28361;50.740;7.084;2023-07-13T19:18:38;21.50;1.00
41987;DHT22;28361;50.740;7.084;2023-07-13T19:21:36;21.50;1.00
41987;DHT22;28361;50.740;7.084;2023-07-13T19:24:03;21.40;1.00
41987;DHT22;28361;50.740;7.084;2023-07-13T19:26:32;21.40;1.00
41987;DHT22;28361;50.740;7.084;2023-07-13T19:28:59;21.40;1.00
41987;DHT22;28361;50.740;7.084;2023-07-13T19:31:30;21.40;1.00
41987;DHT22;28361;50.740;7.084;2023-07-13T19:33:58;21.30;1.00
41987;DHT22;28361;50.740;7.084;2023-07-13T19:36:25;21.20;1.00
41987;DHT22;28361;50.740;7.084;2023-07-13T19:38:51;21.20;1.00
41987;DHT22;28361;50.740;7.084;2023-07-13T19:41:22;21.10;1.00
41987;DHT22;28361;50.740;7.084;2023-07-13T19:43:50;21.20;1.00
41987;DHT22;28361;50.740;7.084;2023-07-13T19:46:26;21.10;1.00
41987;DHT22;28361;50.740;7.084;2023-07-13T19:48:52;21.00;1.00
41987;DHT22;28361;50.740;7.084;2023-07-13T19:51:19;21.00;1.00
41987;DHT22;28361;50.740;7.084;2023-07-13T19:53:54;20.90;1.00
41987;DHT22;28361;50.740;7.084;2023-07-13T19:56:21;20.90;1.00
41987;DHT22;28361;50.740;7.084;2023-07-13T19:58:47;20.90;1.00
41987;DHT22;28361;50.740;7.084;2023-07-13T20:01:13;20.80;1.00
41987;DHT22;28361;50.740;7.084;2023-07-13T20:03:39;20.70;1.00
41987;DHT22;28361;50.740;7.084;2023-07-13T20:06:24;20.80;1.00
41987;DHT22;28361;50.740;7.084;2023-07-13T20:08:54;20.80;1.00
41987;DHT22;28361;50.740;7.084;2023-07-13T20:11:20;20.80;1.00
41987;DHT22;28361;50.740;7.084;2023-07-13T20:13:45;20.70;1.00
41987;DHT22;28361;50.740;7.084;2023-07-13T20:16:14;20.70;1.00
41987;DHT22;28361;50.740;7.084;2023-07-13T20:18:43;20.60;1.00
41987;DHT22;28361;50.740;7.084;2023-07-13T20:21:12;20.60;1.00
41987;DHT22;28361;50.740;7.084;2023-07-13T20:23:38;20.50;1.00
41987;DHT22;28361;50.740;7.084;2023-07-13T20:26:04;20.50;1.00
41987;DHT22;28361;50.740;7.084;2023-07-13T20:28:30;20.50;1.00
41987;DHT22;28361;50.740;7.084;2023-07-13T20:30:56;20.50;1.00
41987;DHT22;28361;50.740;7.084;2023-07-13T20:33:24;20.50;1.00
41987;DHT22;28361;50.740;7.084;2023-07-13T20:35:53;20.40;1.00
41987;DHT22;28361;50.740;7.084;2023-07-13T20:38:20;20.40;1.00
41987;DHT22;28361;50.740;7.084;2023-07-13T20:40:47;20.40;1.00
41987;DHT22;28361;50.740;7.084;2023-07-13T20:43:18;20.30;1.00
41987;DHT22;28361;50.740;7.084;2023-07-13T20:45:44;20.30;1.00
41987;DHT22;28361;50.740;7.084;2023-07-13T20:50:41;20.20;1.00
41987;DHT22;28361;50.740;7.084;2023-07-13T20:53:10;20.20;1.00
41987;DHT22;28361;50.740;7.084;2023-07-13T20:55:37;20.20;1.00
41987;DHT22;28361;50.740;7.084;2023-07-13T20:58:03;20.20;1.00
41987;DHT22;28361;50.740;7.084;2023-07-13T21:00:29;20.10;1.00
41987;DHT22;28361;50.740;7.084;2023-07-13T21:03:03;20.00;1.00
41987;DHT22;28361;50.740;7.084;2023-07-13T21:05:41;20.00;1.00
41987;DHT22;28361;50.740;7.084;2023-07-13T21:08:18;20.00;1.00
41987;DHT22;28361;50.740;7.084;2023-07-13T21:10:45;20.00;1.00
41987;DHT22;28361;50.740;7.084;2023-07-13T21:13:11;20.10;1.00
41987;DHT22;28361;50.740;7.084;2023-07-13T21:15:39;20.10;1.00
41987;DHT22;28361;50.740;7.084;2023-07-13T21:18:05;20.00;1.00
41987;DHT22;28361;50.740;7.084;2023-07-13T21:20:38;19.90;1.00
41987;DHT22;28361;50.740;7.084;2023-07-13T21:23:29;19.90;1.00
41987;DHT22;28361;50.740;7.084;2023-07-13T21:25:56;19.80;1.00
41987;DHT22;28361;50.740;7.084;2023-07-13T21:28:24;19.80;1.00
41987;DHT22;28361;50.740;7.084;2023-07-13T21:30:51;19.80;1.00
41987;DHT22;28361;50.740;7.084;2023-07-13T21:33:17;19.80;1.00
41987;DHT22;28361;50.740;7.084;2023-07-13T21:35:44;19.70;1.00
41987;DHT22;28361;50.740;7.084;2023-07-13T21:40:49;19.50;1.00
41987;DHT22;28361;50.740;7.084;2023-07-13T21:43:16;19.40;1.00
41987;DHT22;28361;50.740;7.084;2023-07-13T21:45:42;19.50;1.00
41987;DHT22;28361;50.740;7.084;2023-07-13T21:48:08;19.50;1.00
41987;DHT22;28361;50.740;7.084;2023-07-13T21:50:38;19.40;1.00
41987;DHT22;28361;50.740;7.084;2023-07-13T21:53:24;19.30;1.00
41987;DHT22;28361;50.740;7.084;2023-07-13T21:55:52;19.20;1.00
41987;DHT22;28361;50.740;7.084;2023-07-13T21:58:24;19.20;1.00
41987;DHT22;28361;50.740;7.084;2023-07-13T22:00:51;19.20;1.00
41987;DHT22;28361;50.740;7.084;2023-07-13T22:03:37;19.20;1.00
41987;DHT22;28361;50.740;7.084;2023-07-13T22:06:05;19.10;1.00
41987;DHT22;28361;50.740;7.084;2023-07-13T22:08:36;19.20;1.00
41987;DHT22;28361;50.740;7.084;2023-07-13T22:11:13;19.20;1.00
41987;DHT22;28361;50.740;7.084;2023-07-13T22:13:39;19.10;1.00
41987;DHT22;28361;50.740;7.084;2023-07-13T22:16:08;19.00;1.00
41987;DHT22;28361;50.740;7.084;2023-07-13T22:18:37;19.00;1.00
41987;DHT22;28361;50.740;7.084;2023-07-13T22:21:03;19.00;1.00
41987;DHT22;28361;50.740;7.084;2023-07-13T22:23:29;19.00;1.00
41987;DHT22;28361;50.740;7.084;2023-07-13T22:25:56;18.90;1.00
41987;DHT22;28361;50.740;7.084;2023-07-13T22:28:23;18.80;1.00
